Time;durP1;ratioP1;P1;durP2;ratioP2;P2;SDS_P1;SDS_P2;PMS_P1;PMS_P2;Temp;Humidity;BMP_temperature;BMP_pressure;BME280_temperature;BME280_humidity;BME280_pressure;Samples;Min_cycle;Max_cycle;Signal;HPM_P1;HPM_P2
2024/03/09 00:00:09;;;;;;;29.45;16.00;;;6.30;37.60;;;;;;5036333;28;20387;-77
2024/03/09 00:02:36;;;;;;;27.93;15.80;;;6.20;36.80;;;;;;5037128;28;20381;-77
2024/03/09 00:05:05;;;;;;;29.98;16.42;;;6.00;37.30;;;;;;5037963;28;20503;-77
2024/03/09 00:07:31;;;;;;;28.65;16.02;;;6.00;38.00;;;;;;5052866;28;20410;-78
2024/03/09 00:09:57;;;;;;;30.08;15.60;;;5.90;37.90;;;;;;5037414;28;20394;-77
2024/03/09 00:12:22;;;;;;;31.80;15.80;;;5.90;37.70;;;;;;5037678;28;20723;-77
2024/03/09 00:14:48;;;;;;;26.53;15.80;;;5.90;37.30;;;;;;5043880;28;20429;-78
2024/03/09 00:17:16;;;;;;;30.10;16.45;;;5.80;38.20;;;;;;5039280;28;20391;-77
2024/03/09 00:19:42;;;;;;;31.33;16.85;;;6.00;37.70;;;;;;5044354;28;20415;-77
2024/03/09 00:22:09;;;;;;;30.55;16.50;;;6.10;38.40;;;;;;5035871;28;20478;-77
2024/03/09 00:24:34;;;;;;;28.27;15.57;;;6.00;38.70;;;;;;5044977;28;20885;-77
2024/03/09 00:27:00;;;;;;;27.20;14.57;;;6.10;37.90;;;;;;5041961;28;20423;-78
2024/03/09 00:29:25;;;;;;;26.93;14.83;;;6.00;36.40;;;;;;5048067;28;20419;-77
2024/03/09 00:31:52;;;;;;;28.67;15.73;;;5.80;36.80;;;;;;5039443;28;20402;-78
2024/03/09 00:34:19;;;;;;;25.02;14.90;;;5.80;37.30;;;;;;5040841;28;20457;-77
2024/03/09 00:36:46;;;;;;;26.45;15.43;;;5.70;37.20;;;;;;5042534;28;20392;-78
2024/03/09 00:39:12;;;;;;;26.58;15.10;;;5.50;37.70;;;;;;5040315;28;20854;-78
2024/03/09 00:41:42;;;;;;;27.37;14.90;;;5.50;38.10;;;;;;5037182;28;20476;-78
2024/03/09 00:44:09;;;;;;;27.70;15.50;;;5.60;37.90;;;;;;5037348;28;20473;-76
2024/03/09 00:46:36;;;;;;;30.03;15.10;;;5.80;36.80;;;;;;5035852;28;20797;-77
2024/03/09 00:49:02;;;;;;;27.77;15.00;;;5.70;37.00;;;;;;5037092;28;20407;-77
2024/03/09 00:51:30;;;;;;;26.65;14.93;;;5.50;37.80;;;;;;5039345;28;20390;-76
2024/03/09 00:53:56;;;;;;;28.33;16.10;;;5.20;38.50;;;;;;5037759;28;20391;-77
2024/03/09 00:56:22;;;;;;;28.52;15.07;;;5.10;39.30;;;;;;5048469;28;20394;-77
2024/03/09 00:58:48;;;;;;;27.20;15.18;;;5.10;39.40;;;;;;5052654;28;20395;-76
2024/03/09 01:01:14;;;;;;;27.67;16.00;;;5.30;39.00;;;;;;5052508;28;20443;-77
2024/03/09 01:03:39;;;;;;;29.75;16.63;;;5.20;39.10;;;;;;5039410;28;20462;-77
2024/03/09 01:06:05;;;;;;;30.92;16.13;;;5.00;39.80;;;;;;5038758;28;20430;-77
2024/03/09 01:08:31;;;;;;;31.58;16.33;;;4.90;40.20;;;;;;5041621;28;20411;-77
2024/03/09 01:10:57;;;;;;;31.63;16.40;;;4.70;40.90;;;;;;5045981;28;20379;-76
2024/03/09 01:13:23;;;;;;;28.25;15.50;;;4.70;41.20;;;;;;5045381;28;20394;-77
2024/03/09 01:15:51;;;;;;;28.83;15.52;;;4.80;41.40;;;;;;5039033;28;20747;-77
2024/03/09 01:18:17;;;;;;;29.88;15.75;;;5.00;40.60;;;;;;5037835;28;20410;-77
2024/03/09 01:20:43;;;;;;;26.80;15.32;;;5.10;40.00;;;;;;5038069;28;20757;-77
2024/03/09 01:23:09;;;;;;;26.77;14.23;;;5.00;40.10;;;;;;5038659;28;20471;-78
2024/03/09 01:25:35;;;;;;;26.67;15.63;;;5.20;39.60;;;;;;5039118;28;20394;-78
2024/03/09 01:28:00;;;;;;;27.40;15.65;;;5.10;39.90;;;;;;5040387;28;20403;-78
2024/03/09 01:30:26;;;;;;;29.67;16.02;;;5.30;39.70;;;;;;5038884;28;20402;-79
2024/03/09 01:32:52;;;;;;;27.63;15.40;;;5.30;39.50;;;;;;5041376;28;20417;-79
2024/03/09 01:35:17;;;;;;;28.33;15.52;;;5.30;39.70;;;;;;5038633;28;20391;-79
2024/03/09 01:37:43;;;;;;;24.65;14.98;;;5.30;39.80;;;;;;5038044;28;20436;-79
2024/03/09 01:40:10;;;;;;;26.40;15.23;;;5.30;39.80;;;;;;5039521;28;20382;-80
2024/03/09 01:42:36;;;;;;;28.63;15.52;;;5.40;39.40;;;;;;5041026;28;20379;-77
2024/03/09 01:45:05;;;;;;;26.70;15.15;;;5.40;39.70;;;;;;5038724;28;20399;-77
2024/03/09 01:47:32;;;;;;;27.98;15.10;;;5.40;39.30;;;;;;5041706;28;20425;-79
2024/03/09 01:49:58;;;;;;;26.90;15.02;;;5.60;38.60;;;;;;5036375;28;20407;-78
2024/03/09 01:52:26;;;;;;;31.27;15.30;;;5.50;38.70;;;;;;5036150;28;20837;-77
2024/03/09 01:54:54;;;;;;;24.77;14.17;;;5.60;38.30;;;;;;5034771;28;20390;-76
2024/03/09 01:57:20;;;;;;;25.60;14.20;;;5.60;38.10;;;;;;5035624;28;20801;-78
2024/03/09 01:59:54;;;;;;;28.65;15.95;;;5.60;38.20;;;;;;5034927;28;20697;-78
2024/03/09 02:02:22;;;;;;;28.23;15.80;;;5.70;37.70;;;;;;5041668;28;20774;-78
2024/03/09 02:04:48;;;;;;;25.13;14.50;;;5.70;37.70;;;;;;5048726;28;20392;-78
2024/03/09 02:07:16;;;;;;;25.98;14.80;;;5.60;38.00;;;;;;5048473;28;20406;-78
2024/03/09 02:09:43;;;;;;;27.57;14.90;;;5.50;38.60;;;;;;5042221;28;20468;-78
2024/03/09 02:12:10;;;;;;;27.75;15.15;;;5.60;38.40;;;;;;5037517;28;20380;-77
2024/03/09 02:14:38;;;;;;;27.23;14.98;;;5.60;38.60;;;;;;5035491;28;20750;-77
2024/03/09 02:17:10;;;;;;;27.85;15.00;;;5.70;38.50;;;;;;5041722;28;20467;-78
2024/03/09 02:19:38;;;;;;;24.17;14.20;;;5.80;37.50;;;;;;5038925;28;20405;-78
2024/03/09 02:22:06;;;;;;;28.92;15.32;;;5.70;38.00;;;;;;5038719;28;20387;-77
2024/03/09 02:24:35;;;;;;;24.10;14.68;;;5.70;37.90;;;;;;5041489;28;20414;-77
2024/03/09 02:27:01;;;;;;;25.58;14.45;;;5.90;37.80;;;;;;5042383;28;20382;-79
2024/03/09 02:29:26;;;;;;;23.80;14.43;;;5.80;37.50;;;;;;5036316;28;20394;-78
2024/03/09 02:31:55;;;;;;;26.65;14.68;;;5.80;37.60;;;;;;5039865;28;20413;-78
2024/03/09 02:34:21;;;;;;;24.67;14.98;;;5.80;37.90;;;;;;5049615;28;20392;-77
2024/03/09 02:36:47;;;;;;;26.65;15.00;;;5.80;37.80;;;;;;5047600;28;20394;-77
2024/03/09 02:39:13;;;;;;;25.15;14.50;;;5.90;37.70;;;;;;5034616;28;20436;-79
2024/03/09 02:41:38;;;;;;;25.05;15.10;;;5.90;37.60;;;;;;5033557;28;20418;-78
2024/03/09 02:44:04;;;;;;;26.23;14.77;;;5.90;38.10;;;;;;5037002;28;20874;-78
2024/03/09 02:46:30;;;;;;;24.95;14.80;;;6.00;37.50;;;;;;5037891;28;20391;-76
2024/03/09 02:48:55;;;;;;;25.50;14.70;;;6.00;37.40;;;;;;5043790;28;20462;-78
2024/03/09 02:51:23;;;;;;;24.92;14.27;;;6.10;37.80;;;;;;5049757;28;20390;-78
2024/03/09 02:53:52;;;;;;;29.67;15.43;;;6.20;36.60;;;;;;5050912;28;20391;-79
2024/03/09 02:56:19;;;;;;;25.90;14.63;;;6.10;36.90;;;;;;5038111;28;20478;-78
2024/03/09 02:58:46;;;;;;;23.70;13.82;;;6.20;36.70;;;;;;5037318;28;20395;-78
2024/03/09 03:01:13;;;;;;;25.05;15.10;;;6.20;37.00;;;;;;5036563;28;20482;-78
2024/03/09 03:06:36;;;;;;;24.10;13.98;;;6.20;36.80;;;;;;5039800;28;20395;-78
2024/03/09 03:09:15;;;;;;;25.63;15.13;;;6.20;36.90;;;;;;5037883;28;21000;-78
2024/03/09 03:11:41;;;;;;;26.33;14.20;;;6.20;36.80;;;;;;5036622;28;20514;-77
2024/03/09 03:14:06;;;;;;;29.87;16.20;;;6.30;36.70;;;;;;5035829;28;20382;-76
2024/03/09 03:16:35;;;;;;;28.33;14.80;;;6.30;37.50;;;;;;5035934;28;20413;-77
2024/03/09 03:19:06;;;;;;;24.83;14.75;;;6.30;36.50;;;;;;5048681;28;20390;-77
2024/03/09 03:21:36;;;;;;;25.77;14.30;;;6.40;36.00;;;;;;5049118;28;20384;-76
2024/03/09 03:24:02;;;;;;;26.92;14.65;;;6.40;36.40;;;;;;5037930;28;20823;-78
2024/03/09 03:26:30;;;;;;;26.48;14.70;;;6.30;36.30;;;;;;5037658;28;20387;-77
2024/03/09 03:28:56;;;;;;;24.80;14.38;;;6.30;36.60;;;;;;5038973;28;20410;-78
2024/03/09 03:31:22;;;;;;;26.25;14.45;;;6.30;36.20;;;;;;5038223;28;20411;-78
2024/03/09 03:33:49;;;;;;;24.50;14.60;;;6.30;36.40;;;;;;5039111;28;20383;-78
2024/03/09 03:36:20;;;;;;;29.67;14.98;;;6.30;36.20;;;;;;5037879;28;20379;-79
2024/03/09 03:38:47;;;;;;;28.08;15.40;;;6.30;36.40;;;;;;5041221;28;20394;-79
2024/03/09 03:41:14;;;;;;;23.90;13.95;;;6.30;36.50;;;;;;5041240;28;20398;-79
2024/03/09 03:43:40;;;;;;;28.50;15.30;;;6.20;36.10;;;;;;5045963;28;20430;-77
2024/03/09 03:46:11;;;;;;;29.23;15.30;;;6.20;36.20;;;;;;5057659;28;20435;-77
2024/03/09 03:48:39;;;;;;;26.17;14.60;;;6.20;36.20;;;;;;5054057;28;20481;-80
2024/03/09 03:51:07;;;;;;;25.30;15.13;;;6.30;37.20;;;;;;5037084;28;20822;-79
2024/03/09 03:53:32;;;;;;;26.20;14.80;;;6.20;37.10;;;;;;5036113;28;20885;-79
2024/03/09 03:55:59;;;;;;;28.60;14.97;;;6.30;37.10;;;;;;5038007;28;20391;-78
2024/03/09 03:58:25;;;;;;;26.40;14.60;;;6.20;37.40;;;;;;5036688;28;20731;-79
2024/03/09 04:00:53;;;;;;;26.83;14.95;;;6.20;37.50;;;;;;5037092;28;20429;-79
2024/03/09 04:03:22;;;;;;;28.85;15.25;;;6.20;36.70;;;;;;5037066;28;20861;-78
2024/03/09 04:05:48;;;;;;;27.75;15.48;;;6.10;36.90;;;;;;5036609;28;20494;-78
2024/03/09 04:08:15;;;;;;;27.15;15.70;;;6.20;36.60;;;;;;5034939;28;20410;-78
2024/03/09 04:10:43;;;;;;;25.50;14.77;;;6.10;36.70;;;;;;5047319;28;20375;-78
2024/03/09 04:13:09;;;;;;;28.88;15.10;;;6.20;36.90;;;;;;5041176;28;20395;-80
2024/03/09 04:15:34;;;;;;;25.83;15.10;;;6.10;37.00;;;;;;5048262;28;20378;-79
2024/03/09 04:18:02;;;;;;;25.70;15.37;;;6.00;37.90;;;;;;5041325;28;20893;-78
2024/03/09 04:20:33;;;;;;;27.48;14.80;;;6.10;37.50;;;;;;5035935;28;20391;-78
2024/03/09 04:23:02;;;;;;;28.33;14.52;;;6.20;36.90;;;;;;5036957;28;20901;-79
2024/03/09 04:25:28;;;;;;;26.75;14.85;;;6.20;36.90;;;;;;5036101;28;20401;-78
2024/03/09 04:27:55;;;;;;;26.88;14.98;;;6.30;37.20;;;;;;5042339;28;20477;-78
2024/03/09 04:30:23;;;;;;;27.95;16.00;;;6.30;36.60;;;;;;5042216;28;20427;-80
2024/03/09 04:32:49;;;;;;;30.70;16.20;;;6.30;36.80;;;;;;5036030;28;20759;-78
2024/03/09 04:35:14;;;;;;;25.40;14.70;;;6.40;36.00;;;;;;5035373;28;20407;-78
2024/03/09 04:37:41;;;;;;;28.97;15.40;;;6.50;35.70;;;;;;5034570;28;20755;-78
2024/03/09 04:40:14;;;;;;;25.02;14.75;;;6.40;35.70;;;;;;5035240;28;21264;-79
2024/03/09 04:42:42;;;;;;;26.50;15.15;;;6.40;36.20;;;;;;5036782;28;20450;-79
2024/03/09 04:45:10;;;;;;;27.80;15.37;;;6.50;36.10;;;;;;5039152;28;20402;-78
2024/03/09 04:47:37;;;;;;;29.27;15.60;;;6.40;35.80;;;;;;5035197;28;20456;-77
2024/03/09 04:50:03;;;;;;;28.77;15.60;;;6.60;36.20;;;;;;5037090;28;20388;-79
2024/03/09 04:52:29;;;;;;;27.17;15.43;;;6.60;35.60;;;;;;5044523;28;20407;-78
2024/03/09 04:54:55;;;;;;;28.92;15.35;;;6.60;35.40;;;;;;5041602;28;20391;-79
2024/03/09 04:57:24;;;;;;;26.40;14.73;;;6.60;35.40;;;;;;5037166;28;20414;-80
2024/03/09 04:59:52;;;;;;;26.63;15.43;;;6.50;35.50;;;;;;5035942;28;20443;-79
2024/03/09 05:02:17;;;;;;;28.13;14.85;;;6.50;35.80;;;;;;5036326;28;20764;-79
2024/03/09 05:04:43;;;;;;;28.40;15.10;;;6.40;36.10;;;;;;5035112;28;20389;-78
2024/03/09 05:07:09;;;;;;;26.43;15.20;;;6.40;36.10;;;;;;5035143;28;20391;-79
2024/03/09 05:09:37;;;;;;;27.43;15.47;;;6.40;36.50;;;;;;5035217;28;20394;-79
2024/03/09 05:12:03;;;;;;;32.17;15.80;;;6.40;36.00;;;;;;5035745;28;20801;-79
2024/03/09 05:14:30;;;;;;;27.08;15.38;;;6.40;36.30;;;;;;5035543;28;20486;-79
2024/03/09 05:16:56;;;;;;;27.73;15.55;;;6.40;36.60;;;;;;5035336;28;20388;-79
2024/03/09 05:19:22;;;;;;;28.20;15.68;;;6.40;36.00;;;;;;5035418;28;20395;-79
2024/03/09 05:21:48;;;;;;;27.90;15.35;;;6.30;36.90;;;;;;5036396;28;20383;-80
2024/03/09 05:24:15;;;;;;;29.38;16.40;;;6.40;36.70;;;;;;5038577;28;20386;-78
2024/03/09 05:26:42;;;;;;;28.20;15.52;;;6.40;37.40;;;;;;5038087;28;20379;-78
2024/03/09 05:29:11;;;;;;;27.33;15.57;;;6.50;36.80;;;;;;5040314;28;20901;-79
2024/03/09 05:31:37;;;;;;;29.95;15.85;;;6.40;36.30;;;;;;5038734;28;20970;-78
2024/03/09 05:34:04;;;;;;;28.17;16.00;;;6.40;36.90;;;;;;5039825;28;20407;-79
2024/03/09 05:36:29;;;;;;;30.10;16.23;;;6.30;36.30;;;;;;5037439;28;20391;-78
2024/03/09 05:38:55;;;;;;;27.90;15.20;;;6.40;36.00;;;;;;5037184;28;20407;-79
2024/03/09 05:41:21;;;;;;;28.83;15.97;;;6.40;36.40;;;;;;5036828;28;20814;-79
2024/03/09 05:43:47;;;;;;;27.37;15.73;;;6.40;36.20;;;;;;5035949;28;20428;-79
2024/03/09 05:46:19;;;;;;;27.50;15.70;;;6.50;37.10;;;;;;5049101;28;20413;-76
2024/03/09 05:48:45;;;;;;;26.50;15.52;;;6.50;36.90;;;;;;5052504;28;20449;-78
2024/03/09 05:51:11;;;;;;;27.42;15.80;;;6.60;36.30;;;;;;5052218;28;20379;-77
2024/03/09 05:53:38;;;;;;;28.27;15.52;;;6.60;36.00;;;;;;5050363;28;20392;-82
2024/03/09 05:56:05;;;;;;;28.77;16.10;;;6.70;36.50;;;;;;5034027;28;20402;-80
2024/03/09 05:58:31;;;;;;;31.80;15.88;;;6.70;35.70;;;;;;5035843;28;20743;-80
2024/03/09 06:00:57;;;;;;;29.35;15.25;;;6.70;35.90;;;;;;5036426;28;20391;-79
2024/03/09 06:03:23;;;;;;;29.80;15.10;;;6.80;35.90;;;;;;5038510;28;20463;-78
2024/03/09 06:05:48;;;;;;;26.80;15.73;;;6.80;35.50;;;;;;5042917;28;20454;-78
2024/03/09 06:08:14;;;;;;;26.57;15.43;;;6.90;35.60;;;;;;5042306;28;20422;-79
2024/03/09 06:10:39;;;;;;;27.63;15.37;;;6.90;35.60;;;;;;5044224;28;20391;-80
2024/03/09 06:13:06;;;;;;;28.50;15.40;;;6.90;34.80;;;;;;5040910;28;20391;-78
2024/03/09 06:15:32;;;;;;;27.45;15.40;;;6.90;35.30;;;;;;5040038;28;20854;-80
2024/03/09 06:17:58;;;;;;;29.75;16.63;;;7.00;34.70;;;;;;5042220;28;20434;-79
2024/03/09 06:20:27;;;;;;;28.30;15.60;;;7.00;35.10;;;;;;5046471;28;20562;-81
2024/03/09 06:22:54;;;;;;;29.33;15.60;;;7.00;35.10;;;;;;5049053;28;20391;-78
2024/03/09 06:25:25;;;;;;;29.35;16.15;;;7.00;34.80;;;;;;5049667;28;20391;-78
2024/03/09 06:28:05;;;;;;;25.53;14.73;;;7.00;35.60;;;;;;5054145;28;20395;-78
2024/03/09 06:30:31;;;;;;;25.95;15.23;;;7.10;35.70;;;;;;5038591;28;20391;-79
2024/03/09 06:32:58;;;;;;;26.30;14.98;;;7.20;33.80;;;;;;5047520;28;20391;-77
2024/03/09 06:35:26;;;;;;;28.50;15.30;;;7.20;34.30;;;;;;5050070;28;20454;-77
2024/03/09 06:37:59;;;;;;;31.92;15.70;;;7.10;34.40;;;;;;5049270;28;20379;-79
2024/03/09 06:40:26;;;;;;;29.10;16.33;;;7.20;33.90;;;;;;5044781;28;20393;-80
2024/03/09 06:42:56;;;;;;;30.02;15.60;;;7.20;33.80;;;;;;5041305;28;20419;-79
2024/03/09 06:45:22;;;;;;;30.08;16.63;;;7.30;33.50;;;;;;5040099;28;20398;-79
2024/03/09 06:47:49;;;;;;;28.88;15.70;;;7.30;33.30;;;;;;5037513;28;20434;-79
2024/03/09 06:50:15;;;;;;;28.30;16.13;;;7.30;33.70;;;;;;5041793;28;20701;-79
2024/03/09 06:52:40;;;;;;;41.70;16.73;;;7.30;34.00;;;;;;5048246;28;20398;-78
2024/03/09 06:55:06;;;;;;;30.03;16.37;;;7.40;34.50;;;;;;5040337;28;20398;-80
2024/03/09 06:57:35;;;;;;;27.85;15.52;;;7.40;34.30;;;;;;5045192;28;20387;-79
2024/03/09 07:00:12;;;;;;;29.42;16.00;;;7.70;34.20;;;;;;5043994;28;20480;-79
2024/03/09 07:02:38;;;;;;;28.48;15.60;;;7.60;34.00;;;;;;5042751;28;20469;-78
2024/03/09 07:05:10;;;;;;;30.40;16.17;;;7.60;33.10;;;;;;5042403;28;20920;-80
2024/03/09 07:07:37;;;;;;;28.13;15.70;;;7.50;33.30;;;;;;5055671;28;20411;-78
2024/03/09 07:10:09;;;;;;;30.25;16.38;;;7.60;32.90;;;;;;5057806;28;20389;-78
2024/03/09 07:12:42;;;;;;;28.42;16.25;;;7.60;33.50;;;;;;5043097;28;20394;-79
2024/03/09 07:15:15;;;;;;;28.10;15.85;;;7.60;33.40;;;;;;5048325;28;20414;-77
2024/03/09 07:17:45;;;;;;;30.27;17.00;;;7.50;33.40;;;;;;5055025;28;20446;-79
2024/03/09 07:20:16;;;;;;;31.40;16.80;;;7.50;33.80;;;;;;5055192;28;20391;-81
2024/03/09 07:22:43;;;;;;;27.48;15.77;;;7.50;34.00;;;;;;5052650;28;20383;-79
2024/03/09 07:25:14;;;;;;;31.53;17.00;;;7.60;32.60;;;;;;5043146;28;20533;-80
2024/03/09 07:27:41;;;;;;;29.23;15.85;;;7.60;33.10;;;;;;5043634;28;20431;-79
2024/03/09 07:30:08;;;;;;;29.60;15.98;;;7.60;33.10;;;;;;5047999;28;20392;-80
2024/03/09 07:32:35;;;;;;;28.80;15.98;;;7.70;33.70;;;;;;5049320;28;20421;-78
2024/03/09 07:35:05;;;;;;;27.33;15.95;;;7.80;32.30;;;;;;5051866;28;20401;-79
2024/03/09 07:37:30;;;;;;;30.25;16.65;;;8.00;32.10;;;;;;5035731;28;20395;-81
2024/03/09 07:39:56;;;;;;;29.60;16.35;;;8.00;32.50;;;;;;5041870;28;20423;-80
2024/03/09 07:42:21;;;;;;;26.92;16.02;;;8.10;32.30;;;;;;5040526;28;20925;-80
2024/03/09 07:44:47;;;;;;;28.85;16.60;;;8.10;31.80;;;;;;5038260;28;20497;-78
2024/03/09 07:47:13;;;;;;;26.42;15.43;;;8.10;33.10;;;;;;5051106;28;20393;-80
2024/03/09 07:49:38;;;;;;;29.80;16.50;;;8.20;31.80;;;;;;5055502;28;20435;-79
2024/03/09 07:52:05;;;;;;;28.55;14.85;;;8.20;31.20;;;;;;5049510;28;20391;-80
2024/03/09 07:54:31;;;;;;;32.17;16.77;;;8.20;31.30;;;;;;5048180;28;20404;-80
2024/03/09 07:56:57;;;;;;;30.98;16.90;;;8.20;31.90;;;;;;5046159;28;20404;-79
2024/03/09 07:59:23;;;;;;;27.13;15.85;;;8.20;31.30;;;;;;5054998;28;20393;-79
2024/03/09 08:01:49;;;;;;;31.02;17.23;;;8.20;31.60;;;;;;5043988;28;20391;-73
2024/03/09 08:04:15;;;;;;;26.50;14.87;;;8.20;31.80;;;;;;5032209;28;20521;-74
2024/03/09 08:06:43;;;;;;;30.23;15.73;;;8.30;31.50;;;;;;5047229;28;20416;-75
2024/03/09 08:09:13;;;;;;;28.33;16.38;;;8.40;31.80;;;;;;5028899;28;20909;-76
2024/03/09 08:11:39;;;;;;;28.50;16.65;;;8.40;31.10;;;;;;5035027;28;20394;-74
2024/03/09 08:14:05;;;;;;;28.10;16.58;;;8.40;30.90;;;;;;5031576;28;20467;-73
2024/03/09 08:16:32;;;;;;;28.37;16.30;;;8.50;30.90;;;;;;5034496;28;20387;-74
2024/03/09 08:18:58;;;;;;;30.45;16.92;;;8.60;30.80;;;;;;5050288;28;20457;-74
2024/03/09 08:21:24;;;;;;;29.90;17.13;;;8.60;30.00;;;;;;5034368;28;20439;-72
2024/03/09 08:23:52;;;;;;;26.88;15.90;;;8.70;30.40;;;;;;5032651;28;20738;-74
2024/03/09 08:26:18;;;;;;;29.55;16.70;;;8.80;30.10;;;;;;5032500;28;20735;-74
2024/03/09 08:28:43;;;;;;;29.80;15.57;;;8.80;29.60;;;;;;5031807;28;20419;-74
2024/03/09 08:31:09;;;;;;;29.57;16.70;;;8.90;30.30;;;;;;5032061;28;20395;-73
2024/03/09 08:33:35;;;;;;;28.00;16.60;;;9.00;29.90;;;;;;5032104;28;20380;-73
2024/03/09 08:36:02;;;;;;;30.50;16.10;;;9.10;28.90;;;;;;5033690;28;20387;-73
2024/03/09 08:38:28;;;;;;;28.05;15.80;;;9.20;28.90;;;;;;5037829;28;20505;-72
2024/03/09 08:40:53;;;;;;;28.08;16.52;;;9.20;28.40;;;;;;5049280;28;20420;-73
2024/03/09 08:43:19;;;;;;;28.67;16.25;;;9.30;28.50;;;;;;5040569;28;20398;-74
2024/03/09 08:45:45;;;;;;;29.17;15.65;;;9.30;27.90;;;;;;5034981;28;20379;-73
2024/03/09 08:48:12;;;;;;;27.43;15.90;;;9.40;28.10;;;;;;5034583;28;20490;-73
2024/03/09 08:50:38;;;;;;;26.73;15.27;;;9.40;28.50;;;;;;5034486;28;20866;-74
2024/03/09 08:53:03;;;;;;;33.53;17.33;;;9.50;27.60;;;;;;5033959;28;20510;-73
2024/03/09 08:55:29;;;;;;;28.05;15.32;;;9.70;27.00;;;;;;5033063;28;20406;-74
2024/03/09 08:57:55;;;;;;;31.23;16.60;;;9.70;27.10;;;;;;5033446;28;20394;-73
2024/03/09 09:00:24;;;;;;;26.77;15.05;;;9.70;27.60;;;;;;5037129;28;20409;-77
2024/03/09 09:02:51;;;;;;;27.25;15.93;;;9.80;27.40;;;;;;5044741;28;20402;-78
2024/03/09 09:05:18;;;;;;;29.10;15.70;;;9.90;27.60;;;;;;5047590;28;20877;-77
2024/03/09 09:07:47;;;;;;;31.50;15.35;;;10.00;27.10;;;;;;5047185;28;20414;-76
2024/03/09 09:10:14;;;;;;;27.88;15.57;;;10.00;26.30;;;;;;5047458;28;20398;-77
2024/03/09 09:12:45;;;;;;;29.48;15.95;;;10.10;26.10;;;;;;5047435;28;20384;-78
2024/03/09 09:15:12;;;;;;;29.73;16.95;;;10.20;26.20;;;;;;5045808;28;20379;-79
2024/03/09 09:17:40;;;;;;;30.50;17.15;;;10.30;26.30;;;;;;5042215;28;20442;-79
2024/03/09 09:20:10;;;;;;;32.92;16.88;;;10.50;25.30;;;;;;5041407;28;20398;-77
2024/03/09 09:22:37;;;;;;;29.93;16.07;;;10.60;24.70;;;;;;5040245;28;20395;-78
2024/03/09 09:25:03;;;;;;;29.05;16.65;;;10.60;24.60;;;;;;5038571;28;20402;-77
2024/03/09 09:27:29;;;;;;;34.17;18.27;;;10.60;24.90;;;;;;5039238;28;20414;-78
2024/03/09 09:29:55;;;;;;;35.00;17.40;;;10.80;24.10;;;;;;5051037;28;20409;-77
2024/03/09 09:32:23;;;;;;;29.08;16.40;;;11.00;24.20;;;;;;5049832;28;20406;-79
2024/03/09 09:34:49;;;;;;;30.00;16.83;;;11.10;24.00;;;;;;5041150;28;20383;-78
2024/03/09 09:37:14;;;;;;;29.88;16.67;;;11.30;23.10;;;;;;5036888;28;20395;-78
2024/03/09 09:39:40;;;;;;;26.23;15.43;;;11.40;22.70;;;;;;5037366;28;20448;-78
2024/03/09 09:42:06;;;;;;;31.27;16.92;;;11.50;22.40;;;;;;5041354;28;20471;-79
2024/03/09 09:44:32;;;;;;;28.75;16.35;;;11.60;23.50;;;;;;5039772;28;20423;-78
2024/03/09 09:46:58;;;;;;;29.05;16.85;;;11.50;22.50;;;;;;5039224;28;20398;-79
2024/03/09 09:49:25;;;;;;;28.17;16.27;;;11.50;22.50;;;;;;5037049;28;20842;-80
2024/03/09 09:51:51;;;;;;;37.70;19.80;;;11.50;22.80;;;;;;5037772;28;20427;-78
2024/03/09 09:54:23;;;;;;;29.38;16.27;;;11.50;22.70;;;;;;5041578;28;20727;-78
2024/03/09 09:56:49;;;;;;;29.30;16.50;;;11.50;22.90;;;;;;5041106;28;20418;-78
2024/03/09 09:59:14;;;;;;;29.13;16.80;;;11.50;23.20;;;;;;5040562;28;20391;-78
2024/03/09 10:01:40;;;;;;;27.25;16.08;;;11.60;23.70;;;;;;5038764;28;20402;-78
2024/03/09 10:04:05;;;;;;;30.83;17.48;;;11.70;22.70;;;;;;5036474;28;20383;-79
2024/03/09 10:06:32;;;;;;;26.60;15.70;;;11.80;22.50;;;;;;5037933;28;20802;-77
2024/03/09 10:08:59;;;;;;;29.77;16.63;;;11.90;22.80;;;;;;5036810;28;20403;-77
2024/03/09 10:11:25;;;;;;;29.58;17.45;;;11.90;21.60;;;;;;5040252;28;20516;-79
2024/03/09 10:14:00;;;;;;;28.83;15.98;;;12.00;21.80;;;;;;5040820;28;20375;-79
2024/03/09 10:16:28;;;;;;;28.10;16.27;;;12.20;21.00;;;;;;5040840;28;20375;-78
2024/03/09 10:18:56;;;;;;;28.42;15.38;;;12.10;21.20;;;;;;5040243;28;20399;-78
2024/03/09 10:21:38;;;;;;;28.58;16.55;;;12.10;21.10;;;;;;5039146;28;20877;-77
2024/03/09 10:24:08;;;;;;;30.05;15.88;;;12.10;21.70;;;;;;5038679;28;20395;-77
2024/03/09 10:26:36;;;;;;;31.08;15.50;;;12.20;21.40;;;;;;5040573;28;20387;-79
2024/03/09 10:29:03;;;;;;;30.30;16.67;;;12.10;21.20;;;;;;5040375;28;20843;-78
2024/03/09 10:31:29;;;;;;;26.50;14.80;;;12.10;21.60;;;;;;5037376;28;20782;-78
2024/03/09 10:33:55;;;;;;;25.80;14.50;;;12.30;22.20;;;;;;5039247;28;20398;-78
2024/03/09 10:36:25;;;;;;;26.63;15.73;;;12.50;21.10;;;;;;5038179;28;20379;-78
2024/03/09 10:38:54;;;;;;;26.27;14.75;;;12.90;20.00;;;;;;5038365;28;20386;-78
2024/03/09 10:41:25;;;;;;;27.20;15.53;;;13.20;19.60;;;;;;5038512;28;20387;-79
2024/03/09 10:43:52;;;;;;;24.42;14.10;;;13.50;19.20;;;;;;5037660;28;20409;-79
2024/03/09 10:46:23;;;;;;;24.50;14.83;;;13.70;18.00;;;;;;5039345;28;20847;-78
2024/03/09 10:48:53;;;;;;;23.52;14.27;;;13.70;18.40;;;;;;5040547;28;20769;-80
2024/03/09 10:51:25;;;;;;;24.02;13.75;;;13.70;18.40;;;;;;5041087;28;20447;-80
2024/03/09 10:54:12;;;;;;;25.60;14.45;;;13.50;18.20;;;;;;5038284;28;20383;-78
2024/03/09 10:56:39;;;;;;;24.08;14.07;;;13.40;18.70;;;;;;5035082;28;20799;-79
2024/03/09 10:59:09;;;;;;;22.83;14.38;;;13.30;18.40;;;;;;5047026;28;20393;-80
2024/03/09 11:01:35;;;;;;;34.47;14.40;;;13.20;19.20;;;;;;5026372;28;20387;-80
2024/03/09 11:04:04;;;;;;;27.23;15.05;;;13.30;19.00;;;;;;5036540;28;20516;-78
2024/03/09 11:06:30;;;;;;;28.08;16.45;;;13.40;19.40;;;;;;5036478;28;20375;-75
2024/03/09 11:08:56;;;;;;;25.13;15.18;;;13.50;19.30;;;;;;5036079;28;20411;-80
2024/03/09 11:11:25;;;;;;;28.08;14.90;;;13.60;19.30;;;;;;5038575;28;20383;-79
2024/03/09 11:13:51;;;;;;;30.43;16.27;;;13.70;19.30;;;;;;5038416;28;20394;-80
2024/03/09 11:16:20;;;;;;;25.20;13.75;;;13.70;19.20;;;;;;5039407;28;20472;-79
2024/03/09 11:18:57;;;;;;;25.10;14.10;;;13.60;18.70;;;;;;5039535;28;20406;-81
2024/03/09 11:21:32;;;;;;;22.33;13.13;;;13.60;18.90;;;;;;5038461;28;20434;-80
2024/03/09 11:24:07;;;;;;;23.90;13.88;;;13.80;18.70;;;;;;5038051;28;20387;-78
2024/03/09 11:26:38;;;;;;;21.08;12.68;;;14.00;19.00;;;;;;5038801;28;20474;-80
2024/03/09 11:29:04;;;;;;;22.13;13.20;;;14.10;18.30;;;;;;5039805;28;20421;-80
2024/03/09 11:31:30;;;;;;;22.00;11.90;;;14.30;17.30;;;;;;5049776;28;20453;-79
2024/03/09 11:34:06;;;;;;;19.75;12.43;;;14.60;17.80;;;;;;5037435;28;20458;-78
2024/03/09 11:36:43;;;;;;;25.20;12.95;;;14.80;16.40;;;;;;5039022;28;20395;-81
2024/03/09 11:39:10;;;;;;;23.87;13.63;;;14.90;16.00;;;;;;5044891;28;20387;-79
2024/03/09 11:41:42;;;;;;;23.27;14.10;;;15.00;16.00;;;;;;5044895;28;20391;-78
2024/03/09 11:44:08;;;;;;;23.45;12.35;;;15.10;15.60;;;;;;5050263;28;20886;-78
2024/03/09 11:46:37;;;;;;;22.60;13.47;;;15.20;15.70;;;;;;5050372;28;20426;-78
2024/03/09 11:49:03;;;;;;;21.08;12.20;;;15.50;15.70;;;;;;5051035;28;20407;-78
2024/03/09 11:51:36;;;;;;;23.07;12.50;;;15.70;15.30;;;;;;5046506;28;20387;-79
2024/03/09 11:54:06;;;;;;;26.23;14.45;;;15.90;15.20;;;;;;5049327;28;20395;-78
2024/03/09 11:56:34;;;;;;;25.20;13.93;;;16.00;14.50;;;;;;5038778;28;20431;-79
2024/03/09 11:59:00;;;;;;;24.13;13.35;;;15.90;14.70;;;;;;5038281;28;20827;-80
2024/03/09 12:01:26;;;;;;;26.63;13.30;;;15.70;15.20;;;;;;5039217;28;20482;-80
2024/03/09 12:03:53;;;;;;;24.42;14.30;;;15.70;15.10;;;;;;5041056;28;20426;-79
2024/03/09 12:06:21;;;;;;;23.25;13.77;;;15.50;15.30;;;;;;5042328;28;20391;-78
2024/03/09 12:08:51;;;;;;;23.42;12.40;;;15.30;15.50;;;;;;5043524;28;20407;-80
2024/03/09 12:11:21;;;;;;;23.60;13.15;;;15.10;15.90;;;;;;5042752;28;20828;-79
2024/03/09 12:13:47;;;;;;;23.30;13.07;;;15.00;16.50;;;;;;5052622;28;20452;-79
2024/03/09 12:16:16;;;;;;;21.83;12.77;;;14.90;16.50;;;;;;5045790;28;20451;-79
2024/03/09 12:18:47;;;;;;;22.23;12.75;;;14.80;16.50;;;;;;5039567;28;20414;-80
2024/03/09 12:21:14;;;;;;;22.65;12.60;;;14.80;16.90;;;;;;5043993;28;20383;-80
2024/03/09 12:23:40;;;;;;;24.17;13.57;;;14.80;17.20;;;;;;5041601;28;20387;-81
2024/03/09 12:26:09;;;;;;;26.90;14.35;;;14.80;17.00;;;;;;5040830;28;20415;-80
2024/03/09 12:28:34;;;;;;;24.77;12.27;;;14.90;17.60;;;;;;5039557;28;20917;-81
2024/03/09 12:31:00;;;;;;;22.77;12.53;;;14.90;17.20;;;;;;5042970;28;20395;-77
2024/03/09 12:33:27;;;;;;;23.67;13.50;;;15.00;17.00;;;;;;5045196;28;20395;-78
2024/03/09 12:35:59;;;;;;;23.05;13.40;;;15.00;16.50;;;;;;5046961;28;20379;-78